createdAt,value
2018-01-30T00:02:00.000Z,99455
2018-01-30T00:07:00.000Z,99476
2018-01-30T00:12:00.000Z,99457
2018-01-30T00:17:00.000Z,99450
2018-01-30T00:22:00.000Z,99452
2018-01-30T00:27:00.000Z,99434
2018-01-30T00:32:00.000Z,99456
2018-01-30T00:37:00.000Z,99460
2018-01-30T00:42:00.000Z,99413
2018-01-30T00:47:00.000Z,99406
2018-01-30T00:52:00.000Z,99416
2018-01-30T00:57:00.000Z,99392
2018-01-30T01:02:00.000Z,99389
2018-01-30T01:07:00.000Z,99395
2018-01-30T01:12:00.000Z,99400
2018-01-30T01:17:00.000Z,99384
2018-01-30T01:22:00.000Z,99372
2018-01-30T01:27:00.000Z,99348
2018-01-30T01:32:00.000Z,99339
2018-01-30T01:37:00.000Z,99340
2018-01-30T01:42:00.000Z,99354
2018-01-30T01:47:00.000Z,99335
2018-01-30T01:52:00.000Z,99338
2018-01-30T01:57:00.000Z,99340
2018-01-30T02:02:00.000Z,99332
2018-01-30T02:07:00.000Z,99324
2018-01-30T02:12:00.000Z,99295
2018-01-30T02:17:00.000Z,99321
2018-01-30T02:22:00.000Z,99308
2018-01-30T02:27:00.000Z,99328
2018-01-30T02:32:00.000Z,99293
2018-01-30T02:37:00.000Z,99289
2018-01-30T02:43:00.000Z,99271
2018-01-30T02:48:00.000Z,99293
2018-01-30T02:53:00.000Z,99282
2018-01-30T02:58:00.000Z,99276
2018-01-30T03:03:00.000Z,99291
2018-01-30T03:08:00.000Z,99311
2018-01-30T03:13:00.000Z,99311
2018-01-30T03:18:00.000Z,99320
2018-01-30T03:23:00.000Z,99312
2018-01-30T03:28:00.000Z,99300
2018-01-30T03:33:00.000Z,99314
2018-01-30T03:38:00.000Z,99310
2018-01-30T03:43:00.000Z,99310
2018-01-30T03:48:00.000Z,99317
2018-01-30T03:53:00.000Z,99322
2018-01-30T03:58:00.000Z,99326
2018-01-30T04:03:00.000Z,99338
2018-01-30T04:08:00.000Z,99333
2018-01-30T04:13:00.000Z,99322
2018-01-30T04:18:00.000Z,99332
2018-01-30T04:23:00.000Z,99298
2018-01-30T04:28:00.000Z,99308
2018-01-30T04:33:00.000Z,99315
2018-01-30T04:38:00.000Z,99326
2018-01-30T04:43:00.000Z,99324
2018-01-30T04:48:00.000Z,99327
2018-01-30T04:53:00.000Z,99325
2018-01-30T04:58:00.000Z,99333
2018-01-30T05:03:00.000Z,99335
2018-01-30T05:08:00.000Z,99353
2018-01-30T05:13:00.000Z,99358
2018-01-30T05:18:00.000Z,99385
2018-01-30T05:23:00.000Z,99395
2018-01-30T05:28:00.000Z,99415
2018-01-30T05:33:00.000Z,99420
2018-01-30T05:38:00.000Z,99426
2018-01-30T05:43:00.000Z,99437
2018-01-30T05:48:00.000Z,99467
2018-01-30T05:53:00.000Z,99476
2018-01-30T05:58:00.000Z,99497
2018-01-30T06:03:00.000Z,99510
2018-01-30T06:08:00.000Z,99526
2018-01-30T06:13:00.000Z,99553
2018-01-30T06:18:00.000Z,99575
2018-01-30T06:23:00.000Z,99624
2018-01-30T06:28:00.000Z,99632
2018-01-30T06:33:00.000Z,99638
2018-01-30T06:38:00.000Z,99641
2018-01-30T06:43:00.000Z,99649
2018-01-30T06:48:00.000Z,99655
2018-01-30T06:53:00.000Z,99664
2018-01-30T06:58:00.000Z,99678
2018-01-30T07:03:00.000Z,99685
2018-01-30T07:08:00.000Z,99696
2018-01-30T07:13:00.000Z,99713
2018-01-30T07:18:00.000Z,99704
2018-01-30T07:23:00.000Z,99724
2018-01-30T07:28:00.000Z,99717
2018-01-30T07:33:00.000Z,99739
2018-01-30T07:38:00.000Z,99735
2018-01-30T07:43:00.000Z,99742
2018-01-30T07:48:00.000Z,99727
2018-01-30T07:53:00.000Z,99740
2018-01-30T07:58:00.000Z,99738
2018-01-30T08:03:00.000Z,99737
2018-01-30T08:08:00.000Z,99752
2018-01-30T08:13:00.000Z,99759
2018-01-30T08:18:00.000Z,99763
2018-01-30T08:23:00.000Z,99762
2018-01-30T08:28:00.000Z,99772
2018-01-30T08:33:00.000Z,99787
2018-01-30T08:38:00.000Z,99790
2018-01-30T08:44:00.000Z,99796
2018-01-30T08:49:00.000Z,99792
2018-01-30T08:54:00.000Z,99792
2018-01-30T08:59:00.000Z,99800
2018-01-30T09:04:00.000Z,99797
2018-01-30T09:09:00.000Z,99790
2018-01-30T09:14:00.000Z,99799
2018-01-30T09:19:00.000Z,99781
2018-01-30T09:24:00.000Z,99809
2018-01-30T09:29:00.000Z,99795
2018-01-30T09:34:00.000Z,99819
2018-01-30T09:39:00.000Z,99834
2018-01-30T09:44:00.000Z,99842
2018-01-30T09:49:00.000Z,99851
2018-01-30T09:54:00.000Z,99845
2018-01-30T09:59:00.000Z,99859
2018-01-30T10:04:00.000Z,99869
2018-01-30T10:09:00.000Z,99872
2018-01-30T10:14:00.000Z,99859
2018-01-30T10:19:00.000Z,99880
2018-01-30T10:24:00.000Z,99871
2018-01-30T10:29:00.000Z,99869
2018-01-30T10:34:00.000Z,99869
2018-01-30T10:39:00.000Z,99878
2018-01-30T10:44:00.000Z,99877
2018-01-30T10:49:00.000Z,99873
2018-01-30T10:54:00.000Z,99861
2018-01-30T10:59:00.000Z,99864
2018-01-30T11:04:00.000Z,99861
2018-01-30T11:09:00.000Z,99865
2018-01-30T11:14:00.000Z,99866
2018-01-30T11:19:00.000Z,99862
2018-01-30T11:24:00.000Z,99855
2018-01-30T11:29:00.000Z,99854
2018-01-30T11:34:00.000Z,99847
2018-01-30T11:39:00.000Z,99858
2018-01-30T11:44:00.000Z,99848
2018-01-30T11:49:00.000Z,99844
2018-01-30T11:54:00.000Z,99848
2018-01-30T11:59:00.000Z,99839
2018-01-30T12:04:00.000Z,99830
2018-01-30T12:09:00.000Z,99816
2018-01-30T12:14:00.000Z,99821
2018-01-30T12:19:00.000Z,99807
2018-01-30T12:24:00.000Z,99795
2018-01-30T12:29:00.000Z,99802
2018-01-30T12:34:00.000Z,99800
2018-01-30T12:39:00.000Z,99807
2018-01-30T12:44:00.000Z,99793
2018-01-30T12:49:00.000Z,99791
2018-01-30T12:54:00.000Z,99790
2018-01-30T12:59:00.000Z,99782
2018-01-30T13:04:00.000Z,99780
2018-01-30T13:09:00.000Z,99776
2018-01-30T13:14:00.000Z,99775
2018-01-30T13:19:00.000Z,99777
2018-01-30T13:24:00.000Z,99774
2018-01-30T13:29:00.000Z,99781
2018-01-30T13:34:00.000Z,99776
2018-01-30T13:39:00.000Z,99771
2018-01-30T13:44:00.000Z,99771
2018-01-30T13:49:00.000Z,99766
2018-01-30T13:54:00.000Z,99767
2018-01-30T13:59:00.000Z,99769
2018-01-30T14:04:00.000Z,99765
2018-01-30T14:09:00.000Z,99758
2018-01-30T14:14:00.000Z,99756
2018-01-30T14:19:00.000Z,99766
2018-01-30T14:24:00.000Z,99766
2018-01-30T14:29:00.000Z,99761
2018-01-30T14:34:00.000Z,99763
2018-01-30T14:39:00.000Z,99778
2018-01-30T14:44:00.000Z,99763
2018-01-30T14:49:00.000Z,99776
2018-01-30T14:55:00.000Z,99764
2018-01-30T15:00:00.000Z,99764
2018-01-30T15:05:00.000Z,99767
2018-01-30T15:10:00.000Z,99768
2018-01-30T15:15:00.000Z,99757
2018-01-30T15:20:00.000Z,99765
2018-01-30T15:25:00.000Z,99762
2018-01-30T15:30:00.000Z,99758
2018-01-30T15:35:00.000Z,99758
2018-01-30T15:40:00.000Z,99761
2018-01-30T15:45:00.000Z,99754
2018-01-30T15:50:00.000Z,99756
2018-01-30T15:55:00.000Z,99759
2018-01-30T16:00:00.000Z,99767
2018-01-30T16:05:00.000Z,99760
2018-01-30T16:10:00.000Z,99769
2018-01-30T16:15:00.000Z,99779
2018-01-30T16:20:00.000Z,99778
2018-01-30T16:25:00.000Z,99783
2018-01-30T16:30:00.000Z,99791
2018-01-30T16:35:00.000Z,99789
2018-01-30T16:40:00.000Z,99794
2018-01-30T16:45:00.000Z,99798
2018-01-30T16:50:00.000Z,99794
2018-01-30T16:55:00.000Z,99799
2018-01-30T17:00:00.000Z,99803
2018-01-30T17:05:00.000Z,99800
2018-01-30T17:10:00.000Z,99788
2018-01-30T17:15:00.000Z,99785
2018-01-30T17:20:00.000Z,99779
2018-01-30T17:25:00.000Z,99779
2018-01-30T17:30:00.000Z,99780
2018-01-30T17:35:00.000Z,99777
2018-01-30T17:40:00.000Z,99778
2018-01-30T17:45:00.000Z,99766
2018-01-30T17:50:00.000Z,99774
2018-01-30T17:55:00.000Z,99779
2018-01-30T18:00:00.000Z,99772
2018-01-30T18:05:00.000Z,99774
2018-01-30T18:10:00.000Z,99777
2018-01-30T18:15:00.000Z,99791
2018-01-30T18:20:00.000Z,99787
2018-01-30T18:25:00.000Z,99795
2018-01-30T18:30:00.000Z,99790
2018-01-30T18:35:00.000Z,99790
2018-01-30T18:40:00.000Z,99792
2018-01-30T18:45:00.000Z,99795
2018-01-30T18:50:00.000Z,99787
2018-01-30T18:55:00.000Z,99789
2018-01-30T19:00:00.000Z,99792
2018-01-30T19:05:00.000Z,99815
2018-01-30T19:10:00.000Z,99809
2018-01-30T19:15:00.000Z,99821
2018-01-30T19:20:00.000Z,99814
2018-01-30T19:25:00.000Z,99813
2018-01-30T19:30:00.000Z,99811
2018-01-30T19:35:00.000Z,99808
2018-01-30T19:40:00.000Z,99809
2018-01-30T19:45:00.000Z,99812
2018-01-30T19:50:00.000Z,99807
2018-01-30T19:55:00.000Z,99790
2018-01-30T20:00:00.000Z,99799
2018-01-30T20:05:00.000Z,99795
2018-01-30T20:10:00.000Z,99796
2018-01-30T20:15:00.000Z,99795
2018-01-30T20:20:00.000Z,99792
2018-01-30T20:25:00.000Z,99787
2018-01-30T20:30:00.000Z,99781
2018-01-30T20:35:00.000Z,99783
2018-01-30T20:40:00.000Z,99778
2018-01-30T20:45:00.000Z,99781
2018-01-30T20:50:00.000Z,99773
2018-01-30T20:56:00.000Z,99767
2018-01-30T21:01:00.000Z,99770
2018-01-30T21:06:00.000Z,99764
2018-01-30T21:11:00.000Z,99773
2018-01-30T21:16:00.000Z,99757
2018-01-30T21:21:00.000Z,99745
2018-01-30T21:26:00.000Z,99745
2018-01-30T21:31:00.000Z,99736
2018-01-30T21:36:00.000Z,99734
2018-01-30T21:41:00.000Z,99730
2018-01-30T21:46:00.000Z,99729
2018-01-30T21:51:00.000Z,99720
2018-01-30T21:56:00.000Z,99722
2018-01-30T22:01:00.000Z,99704
2018-01-30T22:06:00.000Z,99705
2018-01-30T22:11:00.000Z,99702
2018-01-30T22:16:00.000Z,99689
2018-01-30T22:21:00.000Z,99696
2018-01-30T22:26:00.000Z,99684
2018-01-30T22:31:00.000Z,99685
2018-01-30T22:36:00.000Z,99666
2018-01-30T22:41:00.000Z,99661
2018-01-30T22:46:00.000Z,99667
